Galesburg, IL (61401)

7:01 PM CST on December 21, 2014 (GMT -0600)
North-Central Galesburg | Change Station
CLOSE
Current Station
Personal Weather Station
Location: Galesburg, IL
Elevation: 760 ft
Nearby Weather Stations

Elev 760 ft 40.96 °N, 90.37 °W | Updated 20 seconds ago

Rain
Rain
37.5 °F
Feels Like 38 °F
N
3.0
Wind Variable Wind from SE
Gusts 10.0 mph

Today
High -- | Low -- °F
--% Chance of Precip.
Yesterday
High -- | Low -- °F
Precip. -- in
7:22 AM 4:36 PM
Waning Crescent, 0% visible
Pressure 29.97 in
Visibility 10.0 miles
Clouds Overcast 4100 ft
Windchill 38 °F
Dew Point 34 °F
Humidity 87%
Rainfall 0.09 in
Snow Depth Not available.
UV 0 out of 12
Pollen .10 out of 12
Air Quality Not available.
Flu Activity Not available.
METAR KGBG 220035Z AUTO 14009G15KT 10SM OVC041 02/00 A2997 RMK AO2 T00230000

More Conditions Fewer Conditions

Pressure 29.97 in
Visibility 10.0 miles
Clouds Overcast 4100 ft
Windchill 38 °F
Dew Point 34 °F
Humidity 87%
Rainfall 0.09 in
Snow Depth Not available.
UV 0 out of 12
Pollen .10 out of 12
Air Quality Not available.
Flu Activity Not available.
METAR KGBG 220035Z AUTO 14009G15KT 10SM OVC041 02/00 A2997 RMK AO2 T00230000

More Conditions Fewer Conditions

10-Day Weather Forecast

Almanac

Astronomy

Dec. 21, 2014 Rise Set
Actual Time
Civil Twilight
Nautical Twilight
Astronomical Twilight
Moon
Length of Visible Light
Length of Day
Tomorrow will be .
, % of the Moon is Illuminated

Today's Extremes

State Highs State Lows

Community

WunderPhotos

Upload Photos

1,779,511 photos uploaded!

WunderBlogs® & News

Nearby

Air Quality

  Air Quality AQ Index Pollutant
Not available.

Snow Depth

Station Depth Elevation

Earthquake Activity

City Distance Mag. Time & Date
Minimum magnitude displayed is 2.5.

Coastal Water Temperatures

Place Temperature

Nearby Weather Stations